createdAt,value
2022-12-08T00:01:53.727Z,9.73
2022-12-08T00:04:21.128Z,11.68
2022-12-08T00:07:07.369Z,12.25
2022-12-08T00:09:39.208Z,11.07
2022-12-08T00:12:11.037Z,10.52
2022-12-08T00:14:39.703Z,10.20
2022-12-08T00:17:07.572Z,12.68
2022-12-08T00:19:34.934Z,13.38
2022-12-08T00:22:03.217Z,11.15
2022-12-08T00:24:31.734Z,12.38
2022-12-08T00:26:58.976Z,11.00
2022-12-08T00:29:26.391Z,10.63
2022-12-08T00:31:54.051Z,11.88
2022-12-08T00:34:22.239Z,12.65
2022-12-08T00:36:49.516Z,12.32
2022-12-08T00:39:17.417Z,11.27
2022-12-08T00:42:03.232Z,11.23
2022-12-08T00:44:30.545Z,10.70
2022-12-08T00:46:57.837Z,13.40
2022-12-08T00:49:25.239Z,11.15
2022-12-08T00:51:52.557Z,11.43
2022-12-08T00:54:19.991Z,16.52
2022-12-08T00:56:47.509Z,12.65
2022-12-08T00:59:14.928Z,12.57
2022-12-08T01:01:44.132Z,10.57
2022-12-08T01:04:13.275Z,13.00
2022-12-08T01:06:40.546Z,11.02
2022-12-08T01:09:08.624Z,11.18
2022-12-08T01:11:44.543Z,12.85
2022-12-08T01:14:38.401Z,10.07
2022-12-08T01:17:05.829Z,9.55
2022-12-08T01:19:33.161Z,8.57
2022-12-08T01:22:02.931Z,10.40
2022-12-08T01:24:30.260Z,14.27
2022-12-08T01:27:00.758Z,11.40
2022-12-08T01:29:28.353Z,9.35
2022-12-08T01:31:55.649Z,7.45
2022-12-08T01:34:23.826Z,12.00
2022-12-08T01:36:51.179Z,8.75
2022-12-08T01:39:19.174Z,14.82
2022-12-08T01:41:47.595Z,12.27
2022-12-08T01:44:14.897Z,11.63
2022-12-08T01:46:43.537Z,9.43
2022-12-08T01:49:13.927Z,10.75
2022-12-08T01:51:51.852Z,11.40
2022-12-08T01:54:20.282Z,9.82
2022-12-08T01:56:52.255Z,10.90
2022-12-08T02:01:51.694Z,10.70
2022-12-08T02:04:19.110Z,13.18
2022-12-08T02:06:47.730Z,12.90
2022-12-08T02:09:15.215Z,12.45
2022-12-08T02:11:42.520Z,13.43
2022-12-08T02:17:11.302Z,11.15
2022-12-08T02:19:41.681Z,11.45
2022-12-08T02:22:28.921Z,10.93
2022-12-08T02:25:01.267Z,27.83
2022-12-08T02:27:40.893Z,10.80
2022-12-08T02:30:25.293Z,13.48
2022-12-08T02:32:58.704Z,11.13
2022-12-08T02:35:45.093Z,10.02
2022-12-08T02:38:21.249Z,11.00
2022-12-08T02:41:01.244Z,14.38
2022-12-08T02:43:30.384Z,11.45
2022-12-08T02:46:02.967Z,11.27
2022-12-08T02:48:30.509Z,10.98
2022-12-08T02:50:57.754Z,11.23
2022-12-08T02:53:25.098Z,11.55
2022-12-08T02:55:55.078Z,10.55
2022-12-08T02:58:36.162Z,14.68
2022-12-08T03:01:29.803Z,11.77
2022-12-08T03:03:57.067Z,10.23
2022-12-08T03:06:43.389Z,10.55
2022-12-08T03:09:19.806Z,12.75
2022-12-08T03:11:48.933Z,10.70
2022-12-08T03:14:17.879Z,12.38
2022-12-08T03:16:47.165Z,11.60
2022-12-08T03:19:17.926Z,8.73
2022-12-08T03:21:46.476Z,11.73
2022-12-08T03:24:14.000Z,10.75
2022-12-08T03:26:47.232Z,12.20
2022-12-08T03:29:14.634Z,10.98
2022-12-08T03:31:47.482Z,13.30
2022-12-08T03:34:15.227Z,11.57
2022-12-08T03:36:43.943Z,9.48
2022-12-08T03:39:11.363Z,13.30
2022-12-08T03:41:38.641Z,12.13
2022-12-08T03:44:06.032Z,13.52
2022-12-08T03:46:33.348Z,17.10
2022-12-08T03:49:00.712Z,16.05
2022-12-08T03:51:27.942Z,19.33
2022-12-08T03:53:55.340Z,16.23
2022-12-08T03:56:29.872Z,13.90
2022-12-08T03:58:57.523Z,13.55
2022-12-08T04:01:25.081Z,15.18
2022-12-08T04:03:52.461Z,13.23
2022-12-08T04:06:20.145Z,13.65
2022-12-08T04:08:47.773Z,15.48
2022-12-08T04:11:15.038Z,17.10
2022-12-08T04:13:42.972Z,15.32
2022-12-08T04:16:15.208Z,16.20
2022-12-08T04:18:42.652Z,15.93
2022-12-08T04:21:09.912Z,22.73
2022-12-08T04:23:37.209Z,14.82
2022-12-08T04:26:04.741Z,13.30
2022-12-08T04:28:32.119Z,11.30
2022-12-08T04:30:59.444Z,11.65
2022-12-08T04:33:26.772Z,12.75
2022-12-08T04:35:54.001Z,13.38
2022-12-08T04:38:21.398Z,12.25
2022-12-08T04:40:48.818Z,11.85
2022-12-08T04:43:16.090Z,18.02
2022-12-08T04:45:43.644Z,11.93
2022-12-08T04:48:13.192Z,11.60
2022-12-08T04:50:41.845Z,11.13
2022-12-08T04:53:09.691Z,13.10
2022-12-08T04:55:41.238Z,10.93
2022-12-08T04:58:08.623Z,17.02
2022-12-08T05:00:35.903Z,13.85
2022-12-08T05:03:03.340Z,9.63
2022-12-08T05:05:30.631Z,11.68
2022-12-08T05:07:57.993Z,11.98
2022-12-08T05:10:25.370Z,11.27
2022-12-08T05:12:52.688Z,11.57
2022-12-08T05:15:19.957Z,13.20
2022-12-08T05:17:47.285Z,10.40
2022-12-08T05:20:14.720Z,11.93
2022-12-08T05:22:42.009Z,13.40
2022-12-08T05:25:09.671Z,15.77
2022-12-08T05:27:37.157Z,12.95
2022-12-08T05:30:05.305Z,13.32
2022-12-08T05:32:32.865Z,15.43
2022-12-08T05:35:00.128Z,15.65
2022-12-08T05:37:27.461Z,18.27
2022-12-08T05:39:54.889Z,14.88
2022-12-08T05:42:24.917Z,13.35
2022-12-08T05:44:52.722Z,9.60
2022-12-08T05:47:20.123Z,16.10
2022-12-08T05:49:47.456Z,12.55
2022-12-08T05:52:16.799Z,12.10
2022-12-08T05:54:44.346Z,12.73
2022-12-08T05:57:11.603Z,12.98
2022-12-08T05:59:39.640Z,13.43
2022-12-08T06:02:07.044Z,14.82
2022-12-08T06:04:34.397Z,14.80
2022-12-08T06:07:01.642Z,14.15
2022-12-08T06:09:29.029Z,15.77
2022-12-08T06:11:56.375Z,13.52
2022-12-08T06:14:23.840Z,9.07
2022-12-08T06:16:51.236Z,14.23
2022-12-08T06:19:18.637Z,16.05
2022-12-08T06:21:45.918Z,13.95
2022-12-08T06:24:13.278Z,11.00
2022-12-08T06:26:41.410Z,13.80
2022-12-08T06:29:08.772Z,13.75
2022-12-08T06:31:36.156Z,13.70
2022-12-08T06:34:03.559Z,13.50
2022-12-08T06:36:30.992Z,15.95
2022-12-08T06:38:58.532Z,13.52
2022-12-08T06:41:26.389Z,13.27
2022-12-08T06:43:56.412Z,14.80
2022-12-08T06:46:25.598Z,12.32
2022-12-08T06:48:53.031Z,13.88
2022-12-08T06:51:23.356Z,14.18
2022-12-08T06:53:50.735Z,17.15
2022-12-08T06:56:19.983Z,15.27
2022-12-08T06:58:52.364Z,16.95
2022-12-08T07:01:20.408Z,17.33
2022-12-08T07:03:47.938Z,13.80
2022-12-08T07:06:17.223Z,17.02
2022-12-08T07:08:44.601Z,14.73
2022-12-08T07:11:15.252Z,15.73
2022-12-08T07:13:45.729Z,14.45
2022-12-08T07:16:13.633Z,13.30
2022-12-08T07:18:42.876Z,16.17
2022-12-08T07:21:11.720Z,16.58
2022-12-08T07:23:38.980Z,16.30
2022-12-08T07:26:07.739Z,16.63
2022-12-08T07:28:35.744Z,17.42
2022-12-08T07:31:04.599Z,18.50
2022-12-08T07:33:32.236Z,20.23
2022-12-08T07:36:00.675Z,14.10
2022-12-08T07:38:28.418Z,11.73
2022-12-08T07:40:55.884Z,13.60
2022-12-08T07:43:23.724Z,14.43
2022-12-08T07:45:51.481Z,14.43
2022-12-08T07:48:18.916Z,12.65
2022-12-08T07:50:46.330Z,12.85
2022-12-08T07:53:13.631Z,21.17
2022-12-08T07:55:44.413Z,18.27
2022-12-08T07:58:12.188Z,16.85
2022-12-08T08:00:39.518Z,17.83
2022-12-08T08:03:08.863Z,16.05
2022-12-08T08:05:36.472Z,17.92
2022-12-08T08:08:03.879Z,16.75
2022-12-08T08:10:31.346Z,16.33
2022-12-08T08:13:01.756Z,16.50
2022-12-08T08:15:30.748Z,19.45
2022-12-08T08:17:58.055Z,14.55
2022-12-08T08:20:25.462Z,16.25
2022-12-08T08:22:52.779Z,18.75
2022-12-08T08:25:27.628Z,15.52
2022-12-08T08:27:58.175Z,14.75
2022-12-08T08:30:25.488Z,15.45
2022-12-08T08:32:52.829Z,16.95
2022-12-08T08:35:20.172Z,22.83
2022-12-08T08:37:49.450Z,21.70
2022-12-08T08:40:18.264Z,26.13
2022-12-08T08:42:45.577Z,21.13
2022-12-08T08:45:13.781Z,17.50
2022-12-08T08:47:41.034Z,16.55
2022-12-08T08:50:08.901Z,19.30
2022-12-08T08:52:36.440Z,19.77
2022-12-08T08:55:05.109Z,17.05
2022-12-08T08:57:32.661Z,13.45
2022-12-08T08:59:59.913Z,19.33
2022-12-08T09:02:27.322Z,17.67
2022-12-08T09:04:56.025Z,20.02
2022-12-08T09:07:23.409Z,16.95
2022-12-08T09:09:50.814Z,16.60
2022-12-08T09:12:18.087Z,19.60
2022-12-08T09:14:46.035Z,19.88
2022-12-08T09:17:13.289Z,17.73
2022-12-08T09:19:40.531Z,16.77
2022-12-08T09:22:07.765Z,18.27
2022-12-08T09:27:31.469Z,14.68
2022-12-08T09:29:58.902Z,18.00
2022-12-08T09:32:26.184Z,27.38
2022-12-08T09:34:55.098Z,17.58
2022-12-08T09:37:22.554Z,16.63
2022-12-08T09:39:50.159Z,17.05
2022-12-08T09:42:23.482Z,17.77
2022-12-08T09:44:57.352Z,17.70
2022-12-08T09:47:32.071Z,16.05
2022-12-08T09:50:01.185Z,16.77
2022-12-08T09:52:30.945Z,17.60
2022-12-08T09:54:59.837Z,22.60
2022-12-08T09:57:27.169Z,18.52
2022-12-08T09:59:59.035Z,15.15
2022-12-08T10:02:29.426Z,20.48
2022-12-08T10:04:58.059Z,17.30
2022-12-08T10:07:45.183Z,15.85
2022-12-08T10:10:25.312Z,19.58
2022-12-08T10:12:55.730Z,16.60
2022-12-08T10:17:52.801Z,19.05
2022-12-08T10:20:21.965Z,15.68
2022-12-08T10:22:51.720Z,16.02
2022-12-08T10:25:33.893Z,16.55
2022-12-08T10:28:02.749Z,14.95
2022-12-08T10:30:32.418Z,17.63
2022-12-08T10:33:00.400Z,15.48
2022-12-08T10:35:42.661Z,16.17
2022-12-08T10:38:16.931Z,19.00
2022-12-08T10:40:47.008Z,15.30
2022-12-08T10:43:15.868Z,16.48
2022-12-08T10:45:43.976Z,20.00
2022-12-08T10:48:15.621Z,17.90
2022-12-08T10:50:44.555Z,15.15
2022-12-08T10:53:13.835Z,16.08
2022-12-08T10:55:41.223Z,18.08
2022-12-08T10:58:27.332Z,18.02
2022-12-08T11:00:56.382Z,14.85
2022-12-08T11:03:27.373Z,14.25
2022-12-08T11:05:57.347Z,16.65
2022-12-08T11:08:24.938Z,14.38
2022-12-08T11:10:52.240Z,22.02
2022-12-08T11:13:29.930Z,15.32
2022-12-08T11:15:57.632Z,16.20
2022-12-08T11:18:47.940Z,17.77
2022-12-08T11:21:16.715Z,19.33
2022-12-08T11:23:47.604Z,15.18
2022-12-08T11:26:21.319Z,18.27
2022-12-08T11:28:48.622Z,17.85
2022-12-08T11:31:26.308Z,15.95
2022-12-08T11:33:54.275Z,20.08
2022-12-08T11:36:22.956Z,31.38
2022-12-08T11:38:52.232Z,19.40
2022-12-08T11:41:20.725Z,17.85
2022-12-08T11:43:47.974Z,16.00
2022-12-08T11:46:21.640Z,17.50
2022-12-08T11:48:52.440Z,18.23
2022-12-08T11:51:19.771Z,15.75
2022-12-08T11:53:50.351Z,18.17
2022-12-08T11:56:20.748Z,17.77
2022-12-08T11:58:51.540Z,16.88
2022-12-08T12:01:23.844Z,20.20
2022-12-08T12:04:10.173Z,16.70
2022-12-08T12:06:57.053Z,17.75
2022-12-08T12:09:41.347Z,16.27
2022-12-08T12:12:15.875Z,19.80
2022-12-08T12:14:52.169Z,18.58
2022-12-08T12:17:28.765Z,16.40
2022-12-08T12:19:57.741Z,15.65
2022-12-08T12:22:25.419Z,14.75
2022-12-08T12:24:53.181Z,15.30
2022-12-08T12:27:25.781Z,18.75
2022-12-08T12:29:58.937Z,17.42
2022-12-08T12:32:28.253Z,19.33
2022-12-08T12:35:01.277Z,18.15
2022-12-08T12:37:37.214Z,17.08
2022-12-08T12:40:07.607Z,23.58
2022-12-08T12:42:38.281Z,14.48
2022-12-08T12:45:11.594Z,23.48
2022-12-08T12:47:56.184Z,18.45
2022-12-08T12:50:43.434Z,21.00
2022-12-08T12:53:16.799Z,18.10
2022-12-08T12:55:47.198Z,19.35
2022-12-08T12:58:20.594Z,18.17
2022-12-08T13:00:48.108Z,20.02
2022-12-08T13:03:17.047Z,28.00
2022-12-08T13:05:54.103Z,17.83
2022-12-08T13:08:23.450Z,22.65
2022-12-08T13:10:58.838Z,18.38
2022-12-08T13:13:26.129Z,17.70
2022-12-08T13:15:54.597Z,17.15
2022-12-08T13:18:26.514Z,18.58
2022-12-08T13:23:43.812Z,18.38
2022-12-08T13:26:24.705Z,18.70
2022-12-08T13:29:03.968Z,17.23
2022-12-08T13:31:51.507Z,17.42
2022-12-08T13:34:25.346Z,17.55
2022-12-08T13:37:00.805Z,18.33
2022-12-08T13:39:35.919Z,16.75
2022-12-08T13:42:07.016Z,15.60
2022-12-08T13:47:35.257Z,18.83
2022-12-08T13:58:40.738Z,18.63
2022-12-08T14:01:20.124Z,18.60
2022-12-08T14:04:04.753Z,15.07
2022-12-08T14:06:39.814Z,16.15
2022-12-08T14:09:11.508Z,14.18
2022-12-08T14:11:40.399Z,16.33
2022-12-08T14:14:09.692Z,19.27
2022-12-08T14:16:42.182Z,18.52
2022-12-08T14:19:17.424Z,19.67
2022-12-08T14:21:51.048Z,19.33
2022-12-08T14:24:18.564Z,17.38
2022-12-08T14:26:47.363Z,18.05
2022-12-08T14:29:24.896Z,20.90
2022-12-08T14:31:53.752Z,18.15
2022-12-08T14:34:21.103Z,19.83
2022-12-08T14:36:48.562Z,18.48
2022-12-08T14:39:16.008Z,22.95
2022-12-08T14:41:58.937Z,19.45
2022-12-08T14:44:26.497Z,19.67
2022-12-08T14:47:05.901Z,22.67
2022-12-08T14:49:34.735Z,20.00
2022-12-08T14:52:02.819Z,18.95
2022-12-08T14:54:31.807Z,20.77
2022-12-08T14:57:01.802Z,17.75
2022-12-08T14:59:30.469Z,17.60
2022-12-08T15:02:22.808Z,15.48
2022-12-08T15:04:55.606Z,24.70
2022-12-08T15:07:28.917Z,20.92
2022-12-08T15:10:21.374Z,19.85
2022-12-08T15:15:17.657Z,17.80
2022-12-08T15:17:47.044Z,30.95
2022-12-08T15:20:35.598Z,24.05
2022-12-08T15:23:03.862Z,20.33
2022-12-08T15:25:31.294Z,20.80
2022-12-08T15:27:58.699Z,20.30
2022-12-08T15:30:29.870Z,30.42
2022-12-08T15:32:57.233Z,32.35
2022-12-08T15:35:25.083Z,35.72
2022-12-08T15:37:52.585Z,33.72
2022-12-08T15:40:21.278Z,35.60
2022-12-08T15:42:50.079Z,31.95
2022-12-08T15:45:18.430Z,35.38
2022-12-08T15:47:46.283Z,33.72
2022-12-08T15:50:17.953Z,28.88
2022-12-08T15:52:45.397Z,28.60
2022-12-08T15:55:16.753Z,22.50
2022-12-08T15:58:31.271Z,20.85
2022-12-08T16:04:13.758Z,18.80
2022-12-08T16:09:12.384Z,24.90
2022-12-08T16:12:08.987Z,24.40
2022-12-08T16:17:25.329Z,19.80
2022-12-08T16:19:52.880Z,18.35
2022-12-08T16:25:18.261Z,24.67
2022-12-08T16:30:35.150Z,22.08
2022-12-08T16:33:02.558Z,18.65
2022-12-08T16:35:30.638Z,23.65
2022-12-08T16:37:58.081Z,20.13
2022-12-08T16:40:25.606Z,22.83
2022-12-08T16:42:53.019Z,21.38
2022-12-08T16:45:21.986Z,20.92
2022-12-08T16:47:50.801Z,20.27
2022-12-08T16:50:31.769Z,20.90
2022-12-08T16:53:00.435Z,18.55
2022-12-08T16:55:28.001Z,15.32
2022-12-08T16:57:58.655Z,20.38
2022-12-08T17:00:26.895Z,17.02
2022-12-08T17:02:54.767Z,19.35
2022-12-08T17:05:23.598Z,16.65
2022-12-08T17:07:51.938Z,17.42
2022-12-08T17:10:20.798Z,19.02
2022-12-08T17:12:48.186Z,20.67
2022-12-08T17:15:17.331Z,21.63
2022-12-08T17:17:44.701Z,17.23
2022-12-08T17:20:22.438Z,19.92
2022-12-08T17:22:50.276Z,22.35
2022-12-08T17:25:27.335Z,19.25
2022-12-08T17:27:56.337Z,21.25
2022-12-08T17:30:23.878Z,19.92
2022-12-08T17:32:52.797Z,18.83
2022-12-08T17:35:20.299Z,22.33
2022-12-08T17:37:47.965Z,22.77
2022-12-08T17:40:15.357Z,25.35
2022-12-08T17:42:42.803Z,26.83
2022-12-08T17:45:10.439Z,24.70
2022-12-08T17:47:38.022Z,22.42
2022-12-08T17:50:07.217Z,18.15
2022-12-08T17:52:35.066Z,17.83
2022-12-08T17:55:03.060Z,18.58
2022-12-08T17:57:31.058Z,21.55
2022-12-08T17:59:58.388Z,21.02
2022-12-08T18:02:25.815Z,22.25
2022-12-08T18:04:53.167Z,22.05
2022-12-08T18:07:20.475Z,19.58
2022-12-08T18:09:47.858Z,25.10
2022-12-08T18:12:19.250Z,20.42
2022-12-08T18:14:50.036Z,24.15
2022-12-08T18:17:17.410Z,24.25
2022-12-08T18:19:44.746Z,28.23
2022-12-08T18:22:12.402Z,29.10
2022-12-08T18:24:39.680Z,34.70
2022-12-08T18:27:06.943Z,42.70
2022-12-08T18:29:34.536Z,36.53
2022-12-08T18:32:01.803Z,28.88
2022-12-08T18:34:29.069Z,27.05
2022-12-08T18:36:56.387Z,19.50
2022-12-08T18:39:25.303Z,22.40
2022-12-08T18:41:56.964Z,25.73
2022-12-08T18:44:24.567Z,24.08
2022-12-08T18:46:51.983Z,24.45
2022-12-08T18:49:21.760Z,30.35
2022-12-08T18:51:49.097Z,26.83
2022-12-08T18:54:16.384Z,19.08
2022-12-08T18:56:46.458Z,23.63
2022-12-08T18:59:14.107Z,31.20
2022-12-08T19:01:41.728Z,31.23
2022-12-08T19:04:27.768Z,26.05
2022-12-08T19:06:55.520Z,29.70
2022-12-08T19:09:22.997Z,23.00
2022-12-08T19:11:51.964Z,17.90
2022-12-08T19:14:25.741Z,18.80
2022-12-08T19:16:55.141Z,19.42
2022-12-08T19:19:22.626Z,21.90
2022-12-08T19:21:50.118Z,22.15
2022-12-08T19:24:17.437Z,22.50
2022-12-08T19:26:44.718Z,21.30
2022-12-08T19:29:12.157Z,20.75
2022-12-08T19:31:39.763Z,19.25
2022-12-08T19:34:08.573Z,19.85
2022-12-08T19:36:42.030Z,21.08
2022-12-08T19:39:30.790Z,22.88
2022-12-08T19:42:16.855Z,23.17
2022-12-08T19:44:53.135Z,22.10
2022-12-08T19:47:21.912Z,32.78
2022-12-08T19:49:49.256Z,30.02
2022-12-08T19:52:17.129Z,30.48
2022-12-08T19:54:44.859Z,32.00
2022-12-08T19:57:12.265Z,24.02
2022-12-08T19:59:40.154Z,21.92
2022-12-08T20:02:08.060Z,21.30
2022-12-08T20:04:35.511Z,17.80
2022-12-08T20:07:02.856Z,16.80
2022-12-08T20:09:30.191Z,17.23
2022-12-08T20:11:57.528Z,21.00
2022-12-08T20:14:25.302Z,17.67
2022-12-08T20:16:52.790Z,18.35
2022-12-08T20:19:20.114Z,23.55
2022-12-08T20:21:47.478Z,20.95
2022-12-08T20:24:14.831Z,22.95
2022-12-08T20:26:42.096Z,18.20
2022-12-08T20:29:09.798Z,21.85
2022-12-08T20:31:37.392Z,21.38
2022-12-08T20:34:04.705Z,21.10
2022-12-08T20:36:32.040Z,20.58
2022-12-08T20:38:59.312Z,18.77
2022-12-08T20:41:26.674Z,15.70
2022-12-08T20:43:54.059Z,15.82
2022-12-08T20:46:22.030Z,20.75
2022-12-08T20:48:49.447Z,17.17
2022-12-08T20:51:18.091Z,16.30
2022-12-08T20:53:45.817Z,15.48
2022-12-08T20:56:24.823Z,17.23
2022-12-08T20:58:59.542Z,17.88
2022-12-08T21:01:28.173Z,19.77
2022-12-08T21:03:56.583Z,20.15
2022-12-08T21:06:29.121Z,19.33
2022-12-08T21:08:59.552Z,12.85
2022-12-08T21:11:36.258Z,14.38
2022-12-08T21:14:03.583Z,15.32
2022-12-08T21:16:31.416Z,14.68
2022-12-08T21:18:59.530Z,16.42
2022-12-08T21:21:28.279Z,15.45
2022-12-08T21:23:55.885Z,14.50
2022-12-08T21:26:26.001Z,26.80
2022-12-08T21:28:57.890Z,29.02
2022-12-08T21:31:26.986Z,25.80
2022-12-08T21:33:55.229Z,24.95
2022-12-08T21:36:22.962Z,25.27
2022-12-08T21:38:50.987Z,24.60
2022-12-08T21:41:41.276Z,23.70
2022-12-08T21:44:10.316Z,21.48
2022-12-08T21:46:38.104Z,23.70
2022-12-08T21:49:06.040Z,18.15
2022-12-08T21:51:35.085Z,26.75
2022-12-08T21:54:02.383Z,18.48
2022-12-08T21:56:30.069Z,31.13
2022-12-08T21:58:57.428Z,25.25
2022-12-08T22:01:24.848Z,27.58
2022-12-08T22:03:52.314Z,25.58
2022-12-08T22:06:19.758Z,25.10
2022-12-08T22:08:47.401Z,22.65
2022-12-08T22:11:15.192Z,21.65
2022-12-08T22:13:43.132Z,18.02
2022-12-08T22:16:12.587Z,17.63
2022-12-08T22:18:40.172Z,26.23
2022-12-08T22:21:11.316Z,23.02
2022-12-08T22:23:39.218Z,18.77
2022-12-08T22:26:07.080Z,15.60
2022-12-08T22:28:39.366Z,15.32
2022-12-08T22:31:09.971Z,15.40
2022-12-08T22:33:37.617Z,26.10
2022-12-08T22:36:10.709Z,20.85
2022-12-08T22:38:38.792Z,24.08
2022-12-08T22:41:06.527Z,22.23
2022-12-08T22:43:34.658Z,20.85
2022-12-08T22:46:02.285Z,25.58
2022-12-08T22:48:31.005Z,18.48
2022-12-08T22:51:02.018Z,25.80
2022-12-08T22:53:29.438Z,19.93
2022-12-08T22:55:56.734Z,16.00
2022-12-08T22:58:24.321Z,15.75
2022-12-08T23:00:52.028Z,18.17
2022-12-08T23:03:19.575Z,15.25
2022-12-08T23:05:47.542Z,14.85
2022-12-08T23:08:17.649Z,17.85
2022-12-08T23:10:46.834Z,16.10
2022-12-08T23:13:14.776Z,15.82
2022-12-08T23:15:42.099Z,16.20
2022-12-08T23:18:11.999Z,15.35
2022-12-08T23:20:39.943Z,19.10
2022-12-08T23:23:07.215Z,18.48
2022-12-08T23:25:34.596Z,13.23
2022-12-08T23:28:01.950Z,15.63
2022-12-08T23:30:29.371Z,13.00
2022-12-08T23:32:56.789Z,13.32
2022-12-08T23:35:24.482Z,12.57
2022-12-08T23:37:53.404Z,14.60
2022-12-08T23:40:20.754Z,13.43
2022-12-08T23:42:48.443Z,15.35
2022-12-08T23:45:15.983Z,14.05
2022-12-08T23:47:43.377Z,13.38
2022-12-08T23:50:11.525Z,17.33
2022-12-08T23:52:39.969Z,14.30
2022-12-08T23:55:07.963Z,15.35
2022-12-08T23:57:38.740Z,13.02
